Time;durP1;ratioP1;P1;durP2;ratioP2;P2;SDS_P1;SDS_P2;PMS_P1;PMS_P2;Temp;Humidity;BMP_temperature;BMP_pressure;BME280_temperature;BME280_humidity;BME280_pressure;Samples;Min_cycle;Max_cycle;Signal;HPM_P1;HPM_P2
2022/10/16 00:01:36;;;;;;;8.35;1.40;;;12.50;99.90;;;;;;5137370;27;20035;-75
2022/10/16 00:04:02;;;;;;;6.78;1.27;;;12.50;99.90;;;;;;5137817;27;20089;-76
2022/10/16 00:06:28;;;;;;;5.60;1.48;;;12.60;99.90;;;;;;5120087;27;20053;-75
2022/10/16 00:08:54;;;;;;;7.45;1.40;;;12.50;99.90;;;;;;5156065;27;20112;-80
2022/10/16 00:11:26;;;;;;;6.20;1.42;;;12.50;99.90;;;;;;5136683;27;20052;-76
2022/10/16 00:13:56;;;;;;;9.60;1.38;;;12.50;99.90;;;;;;5136842;27;20043;-76
2022/10/16 00:16:22;;;;;;;7.90;1.70;;;12.50;99.90;;;;;;5155305;27;20047;-75
2022/10/16 00:18:48;;;;;;;6.57;1.20;;;12.50;99.90;;;;;;5155537;27;20057;-74
2022/10/16 00:21:17;;;;;;;6.10;1.63;;;12.50;99.90;;;;;;5136790;27;20051;-76
2022/10/16 00:23:42;;;;;;;8.82;1.83;;;12.40;99.90;;;;;;5136923;27;20150;-77
2022/10/16 00:26:11;;;;;;;9.65;1.52;;;12.40;99.90;;;;;;5155019;27;20086;-74
2022/10/16 00:28:38;;;;;;;9.15;2.28;;;12.30;99.90;;;;;;5136036;27;20042;-76
2022/10/16 00:31:08;;;;;;;7.13;1.50;;;12.30;99.90;;;;;;5154789;27;20046;-76
2022/10/16 00:33:35;;;;;;;5.13;1.60;;;12.30;99.90;;;;;;5137295;27;20425;-76
2022/10/16 00:36:03;;;;;;;5.90;1.85;;;12.20;99.90;;;;;;5154813;27;20051;-74
2022/10/16 00:38:28;;;;;;;7.78;1.60;;;12.20;99.90;;;;;;5137189;27;20367;-74
2022/10/16 00:40:54;;;;;;;6.30;1.52;;;12.20;99.90;;;;;;5155335;27;20039;-74
2022/10/16 00:43:40;;;;;;;7.85;1.65;;;12.20;99.90;;;;;;5136560;27;20354;-76
2022/10/16 00:46:14;;;;;;;9.57;2.00;;;12.20;99.90;;;;;;5154736;27;20039;-74
2022/10/16 00:48:41;;;;;;;9.43;1.92;;;12.10;99.90;;;;;;5155238;27;20046;-80
2022/10/16 00:51:07;;;;;;;7.15;1.80;;;12.10;99.90;;;;;;5137206;27;20062;-82
2022/10/16 00:53:34;;;;;;;11.07;1.95;;;12.10;99.90;;;;;;5120966;27;20152;-79
2022/10/16 00:56:01;;;;;;;6.38;1.83;;;12.00;99.90;;;;;;5136634;27;20155;-82
2022/10/16 00:58:27;;;;;;;10.32;1.90;;;12.00;99.90;;;;;;5120377;27;20091;-82
2022/10/16 01:00:52;;;;;;;7.47;2.20;;;12.00;99.90;;;;;;5155696;27;20380;-81
2022/10/16 01:03:23;;;;;;;10.43;1.90;;;12.00;99.90;;;;;;5156104;27;20125;-79
2022/10/16 01:06:20;;;;;;;10.27;2.13;;;12.00;99.90;;;;;;5120250;27;20042;-81
2022/10/16 01:09:10;;;;;;;7.90;2.50;;;12.00;99.90;;;;;;5156195;27;20043;-78
2022/10/16 01:11:36;;;;;;;10.93;2.35;;;12.00;99.90;;;;;;5157359;27;20039;-81
2022/10/16 01:14:11;;;;;;;8.13;2.20;;;12.00;99.90;;;;;;5123986;27;20451;-80
2022/10/16 01:16:57;;;;;;;9.00;2.25;;;12.00;99.90;;;;;;5148897;27;20066;-78
2022/10/16 01:19:35;;;;;;;6.07;2.05;;;12.00;99.90;;;;;;5139385;27;20478;-77
2022/10/16 01:22:02;;;;;;;7.03;2.13;;;12.00;99.90;;;;;;5175978;27;20111;-80
2022/10/16 01:24:45;;;;;;;9.65;2.20;;;12.10;99.90;;;;;;5170382;27;20127;-80
2022/10/16 01:27:30;;;;;;;9.13;2.25;;;12.10;99.90;;;;;;5158173;27;20399;-78
2022/10/16 01:30:25;;;;;;;5.88;2.25;;;12.10;99.90;;;;;;5154754;27;20046;-79
2022/10/16 01:33:08;;;;;;;9.32;2.67;;;12.10;99.90;;;;;;5137106;27;20057;-80
2022/10/16 01:35:45;;;;;;;8.25;2.08;;;12.10;99.90;;;;;;5155000;27;20042;-80
2022/10/16 01:38:34;;;;;;;8.48;2.63;;;12.10;99.90;;;;;;5119569;27;20130;-77
2022/10/16 01:41:04;;;;;;;6.65;2.15;;;12.10;99.90;;;;;;5159297;27;20043;-77
2022/10/16 01:43:38;;;;;;;7.57;2.38;;;12.10;99.90;;;;;;5159154;27;20046;-76
2022/10/16 01:46:05;;;;;;;10.70;2.78;;;12.10;99.90;;;;;;5159523;27;20050;-80
2022/10/16 01:48:32;;;;;;;;;;;12.30;99.90;;;;;;5140535;27;20042;-78
2022/10/16 01:51:06;;;;;;;9.30;2.72;;;12.20;99.90;;;;;;5140065;27;20010;-78
2022/10/16 01:53:33;;;;;;;7.93;2.40;;;12.30;99.90;;;;;;5158878;27;20047;-79
2022/10/16 01:56:00;;;;;;;8.07;2.30;;;12.30;99.90;;;;;;5158347;27;20050;-82
2022/10/16 01:58:30;;;;;;;7.25;2.30;;;12.30;99.90;;;;;;5158607;27;20047;-81
2022/10/16 02:00:57;;;;;;;7.10;2.80;;;12.40;99.90;;;;;;5159678;27;20546;-81
2022/10/16 02:03:23;;;;;;;8.32;2.47;;;12.40;99.90;;;;;;5159184;27;20146;-80
2022/10/16 02:05:53;;;;;;;8.43;2.95;;;12.40;99.90;;;;;;5123120;27;20061;-80
2022/10/16 02:08:22;;;;;;;8.25;2.42;;;12.40;99.90;;;;;;5123954;27;20126;-82
2022/10/16 02:10:48;;;;;;;8.52;2.60;;;12.40;99.90;;;;;;5139825;27;20053;-80
2022/10/16 02:13:29;;;;;;;7.88;2.50;;;12.40;99.90;;;;;;5158738;27;20042;-80
2022/10/16 02:15:55;;;;;;;8.57;2.30;;;12.40;99.90;;;;;;5158927;27;20107;-80
2022/10/16 02:18:21;;;;;;;12.23;2.25;;;12.50;99.90;;;;;;5122582;27;20050;-77
2022/10/16 02:21:15;;;;;;;8.77;2.40;;;12.50;99.90;;;;;;5139740;27;20069;-81
2022/10/16 02:23:55;;;;;;;7.72;2.50;;;12.50;99.90;;;;;;5139898;27;20149;-78
2022/10/16 02:26:35;;;;;;;8.88;2.50;;;12.50;99.90;;;;;;5158750;27;20080;-80
2022/10/16 02:29:05;;;;;;;8.38;2.28;;;12.50;99.90;;;;;;5140420;27;20331;-80
2022/10/16 02:31:34;;;;;;;8.50;2.38;;;12.50;99.90;;;;;;5161424;27;20046;-80
2022/10/16 02:34:04;;;;;;;8.05;2.47;;;12.60;99.90;;;;;;5126280;27;20070;-79
2022/10/16 02:36:32;;;;;;;6.65;2.38;;;12.70;99.90;;;;;;5148865;27;20039;-82
2022/10/16 02:39:00;;;;;;;9.02;2.22;;;12.60;99.90;;;;;;5113406;27;20050;-78
2022/10/16 02:41:25;;;;;;;7.35;2.10;;;12.70;99.90;;;;;;5143562;27;20122;-78
2022/10/16 02:43:51;;;;;;;7.15;2.17;;;12.70;99.90;;;;;;5142430;27;20087;-78
2022/10/16 02:46:18;;;;;;;10.68;1.95;;;12.80;99.90;;;;;;5159146;27;20042;-77
2022/10/16 02:48:44;;;;;;;6.15;2.10;;;12.80;99.90;;;;;;5139638;27;20046;-82
2022/10/16 02:51:09;;;;;;;9.25;2.13;;;12.90;99.90;;;;;;5121685;27;20364;-79
2022/10/16 02:53:35;;;;;;;6.68;2.00;;;12.90;99.90;;;;;;5157528;27;20510;-80
2022/10/16 02:56:01;;;;;;;5.70;2.20;;;12.90;99.90;;;;;;5157446;27;20050;-77
2022/10/16 02:58:26;;;;;;;7.20;2.08;;;12.90;99.90;;;;;;5121630;27;20133;-78
2022/10/16 03:00:52;;;;;;;6.68;2.10;;;12.90;99.90;;;;;;5157015;27;20055;-78
2022/10/16 03:03:18;;;;;;;7.45;2.15;;;13.00;99.90;;;;;;5138229;27;20042;-76
2022/10/16 03:05:45;;;;;;;4.90;1.90;;;12.90;99.90;;;;;;5156820;27;20054;-80
2022/10/16 03:08:12;;;;;;;10.05;2.50;;;13.00;99.90;;;;;;5157146;27;20038;-76
2022/10/16 03:10:38;;;;;;;6.47;2.22;;;13.00;99.90;;;;;;5156503;27;20042;-79
2022/10/16 03:13:04;;;;;;;5.63;2.13;;;13.00;99.90;;;;;;5138263;27;20061;-77
2022/10/16 03:15:30;;;;;;;8.77;2.55;;;13.00;99.90;;;;;;5156381;27;20589;-78
2022/10/16 03:17:58;;;;;;;6.60;2.55;;;13.00;99.90;;;;;;5137772;27;20358;-81
2022/10/16 03:20:24;;;;;;;6.90;2.22;;;13.00;99.90;;;;;;5138630;27;20051;-79
2022/10/16 03:22:50;;;;;;;7.20;2.60;;;13.00;99.90;;;;;;5156137;27;20073;-78
2022/10/16 03:25:16;;;;;;;7.43;2.50;;;13.00;99.90;;;;;;5120707;27;20141;-77
2022/10/16 03:27:41;;;;;;;14.82;2.75;;;12.90;99.90;;;;;;5137302;27;20051;-77
2022/10/16 03:30:08;;;;;;;8.32;2.42;;;13.00;99.90;;;;;;5138019;27;20042;-80
2022/10/16 03:32:34;;;;;;;6.85;2.40;;;12.90;99.90;;;;;;5156003;27;20442;-76
2022/10/16 03:34:59;;;;;;;5.85;1.88;;;12.90;99.90;;;;;;5137559;27;20181;-78
2022/10/16 03:37:25;;;;;;;7.22;2.45;;;12.90;99.90;;;;;;5155633;27;20047;-78
2022/10/16 03:39:51;;;;;;;6.30;2.30;;;12.90;99.90;;;;;;5137533;27;20047;-79
2022/10/16 03:42:17;;;;;;;6.95;2.47;;;12.90;99.90;;;;;;5155556;27;20046;-77
2022/10/16 03:44:42;;;;;;;8.77;2.63;;;12.90;99.90;;;;;;5155809;27;20339;-77
2022/10/16 03:47:08;;;;;;;9.90;2.83;;;12.90;99.90;;;;;;5155251;27;20038;-79
2022/10/16 03:49:34;;;;;;;6.13;2.45;;;12.90;99.90;;;;;;5136585;27;20042;-76
2022/10/16 03:51:59;;;;;;;8.00;2.65;;;12.90;99.90;;;;;;5155337;27;20042;-78
2022/10/16 03:54:25;;;;;;;5.90;2.35;;;12.80;99.90;;;;;;5136805;27;20043;-73
2022/10/16 03:56:51;;;;;;;9.27;2.85;;;12.80;99.90;;;;;;5154997;27;20042;-76
2022/10/16 03:59:17;;;;;;;8.68;3.40;;;12.80;99.90;;;;;;5155620;27;20054;-78
2022/10/16 04:01:42;;;;;;;7.68;3.00;;;12.70;99.90;;;;;;5136813;27;20486;-75
2022/10/16 04:04:08;;;;;;;7.53;3.05;;;12.60;99.90;;;;;;5153634;27;20073;-75
2022/10/16 04:06:34;;;;;;;16.20;3.70;;;12.60;99.90;;;;;;5119430;27;20042;-77
2022/10/16 04:08:59;;;;;;;8.80;3.28;;;12.60;99.90;;;;;;5155065;27;20095;-76
2022/10/16 04:11:25;;;;;;;8.25;3.08;;;12.50;99.90;;;;;;5155250;27;20079;-77
2022/10/16 04:13:51;;;;;;;6.45;2.65;;;12.50;99.90;;;;;;5139285;27;20077;-78
2022/10/16 04:16:16;;;;;;;9.68;2.65;;;12.40;99.90;;;;;;5165938;27;20092;-78
2022/10/16 04:18:42;;;;;;;12.10;3.35;;;12.40;99.90;;;;;;5150148;27;20077;-78
2022/10/16 04:21:08;;;;;;;10.27;3.40;;;12.40;99.90;;;;;;5148986;27;20065;-77
2022/10/16 04:23:34;;;;;;;10.13;3.15;;;12.40;99.90;;;;;;5158845;27;20038;-77
2022/10/16 04:26:00;;;;;;;10.70;3.50;;;12.30;99.90;;;;;;5155465;27;20042;-76
2022/10/16 04:28:26;;;;;;;8.20;3.50;;;12.30;99.90;;;;;;5154543;27;20049;-77
2022/10/16 04:30:52;;;;;;;7.63;3.17;;;12.30;99.90;;;;;;5102425;27;20054;-77
2022/10/16 04:33:18;;;;;;;8.80;3.60;;;12.30;99.90;;;;;;5154550;27;20056;-78
2022/10/16 04:35:43;;;;;;;8.32;3.33;;;12.30;99.90;;;;;;5136158;27;20129;-78
2022/10/16 04:38:09;;;;;;;11.18;3.50;;;12.30;99.90;;;;;;5135817;27;20039;-78
2022/10/16 04:40:38;;;;;;;11.00;3.00;;;12.30;99.90;;;;;;5154744;27;20047;-77
2022/10/16 04:43:05;;;;;;;9.50;3.25;;;12.30;99.90;;;;;;5154615;27;20102;-76
2022/10/16 04:45:30;;;;;;;7.32;3.17;;;12.40;99.90;;;;;;5154642;27;20122;-77
2022/10/16 04:47:59;;;;;;;10.60;3.60;;;12.40;99.90;;;;;;5154932;27;20117;-79
2022/10/16 04:50:25;;;;;;;8.52;3.80;;;12.30;99.90;;;;;;5119117;27;20058;-80
2022/10/16 04:52:51;;;;;;;8.90;3.30;;;12.40;99.90;;;;;;5155332;27;20051;-77
2022/10/16 04:55:17;;;;;;;6.70;3.25;;;12.30;99.90;;;;;;5136223;27;20474;-78
2022/10/16 04:57:42;;;;;;;8.45;3.15;;;12.30;99.90;;;;;;5135957;27;20092;-79
2022/10/16 05:00:09;;;;;;;9.35;3.95;;;12.40;99.90;;;;;;5154504;27;20045;-79
2022/10/16 05:02:34;;;;;;;9.45;3.80;;;12.40;99.90;;;;;;5136145;27;20053;-79
2022/10/16 05:05:00;;;;;;;7.20;3.08;;;12.30;99.90;;;;;;5153917;27;20129;-77
2022/10/16 05:07:26;;;;;;;8.52;3.60;;;12.30;99.90;;;;;;5136099;27;20050;-80
2022/10/16 05:09:51;;;;;;;11.38;3.90;;;12.20;99.90;;;;;;5136374;27;20134;-78
2022/10/16 05:12:17;;;;;;;9.15;3.70;;;12.20;99.90;;;;;;5154255;27;20478;-77
2022/10/16 05:14:43;;;;;;;7.35;3.65;;;12.20;99.90;;;;;;5119106;27;20103;-77
2022/10/16 05:17:09;;;;;;;9.57;3.33;;;12.10;99.90;;;;;;5135994;27;20058;-78
2022/10/16 05:19:34;;;;;;;10.73;3.92;;;12.10;99.90;;;;;;5138307;27;20043;-77
2022/10/16 05:22:00;;;;;;;9.25;3.28;;;12.10;99.90;;;;;;5154150;27;20103;-78
2022/10/16 05:24:26;;;;;;;10.65;3.17;;;12.10;99.90;;;;;;5135634;27;20113;-77
2022/10/16 05:26:52;;;;;;;8.38;3.53;;;12.00;99.90;;;;;;5135800;27;20039;-78
2022/10/16 05:29:18;;;;;;;9.93;3.53;;;12.00;99.90;;;;;;5154711;27;20094;-77
2022/10/16 05:31:44;;;;;;;8.25;3.15;;;12.00;99.90;;;;;;5119145;27;20054;-79
2022/10/16 05:34:10;;;;;;;8.07;3.25;;;12.00;99.90;;;;;;5154363;27;20038;-78
2022/10/16 05:36:35;;;;;;;8.98;3.88;;;12.00;99.90;;;;;;5154525;27;20383;-77
2022/10/16 05:39:01;;;;;;;7.95;3.22;;;12.00;99.90;;;;;;5154809;27;20053;-78
2022/10/16 05:41:27;;;;;;;18.85;3.60;;;12.00;99.90;;;;;;5154883;27;20042;-81
2022/10/16 05:43:53;;;;;;;9.68;3.50;;;12.00;99.90;;;;;;5136782;27;20042;-76
2022/10/16 05:46:19;;;;;;;6.72;3.13;;;12.00;99.90;;;;;;5154946;27;20111;-75
2022/10/16 05:48:45;;;;;;;9.05;3.22;;;12.00;99.90;;;;;;5135173;27;20518;-77
2022/10/16 05:51:13;;;;;;;10.48;2.85;;;12.00;99.90;;;;;;5154078;27;20117;-77
2022/10/16 05:53:40;;;;;;;9.57;3.20;;;12.00;99.90;;;;;;5154050;27;20393;-79
2022/10/16 05:56:08;;;;;;;8.23;3.10;;;12.00;99.90;;;;;;5154496;27;20050;-75
2022/10/16 05:58:36;;;;;;;8.27;3.00;;;12.00;99.90;;;;;;5135777;27;20050;-77
2022/10/16 06:01:08;;;;;;;7.80;3.20;;;11.90;99.90;;;;;;5136311;27;20415;-78
2022/10/16 06:03:35;;;;;;;7.47;3.03;;;11.90;99.90;;;;;;5154642;27;20367;-77
2022/10/16 06:06:09;;;;;;;7.73;2.97;;;11.90;99.90;;;;;;5135736;27;20055;-79
2022/10/16 06:08:35;;;;;;;7.18;2.72;;;12.00;99.90;;;;;;5136355;27;20334;-77
2022/10/16 06:11:05;;;;;;;5.97;2.63;;;12.00;99.90;;;;;;5153839;27;20129;-78
2022/10/16 06:13:31;;;;;;;8.65;2.55;;;11.90;99.90;;;;;;5154294;27;20401;-79
2022/10/16 06:15:59;;;;;;;7.20;2.70;;;11.90;99.90;;;;;;5153853;27;20057;-77
2022/10/16 06:18:25;;;;;;;7.50;2.70;;;11.90;99.90;;;;;;5100933;27;20150;-77
2022/10/16 06:20:51;;;;;;;11.00;2.53;;;11.90;99.90;;;;;;5101777;27;20150;-79
2022/10/16 06:23:16;;;;;;;8.57;2.45;;;12.00;99.90;;;;;;5135756;27;20330;-77
2022/10/16 06:25:42;;;;;;;8.27;2.20;;;12.00;99.90;;;;;;5134878;27;20149;-77
2022/10/16 06:28:08;;;;;;;8.75;2.60;;;12.10;99.90;;;;;;5122030;27;20050;-78
2022/10/16 06:30:33;;;;;;;5.40;2.25;;;12.10;99.90;;;;;;5138665;27;20043;-75
2022/10/16 06:32:59;;;;;;;12.52;2.83;;;12.20;99.90;;;;;;5139103;27;20041;-75
2022/10/16 06:35:25;;;;;;;8.05;2.58;;;12.30;99.90;;;;;;5141404;27;20118;-78
2022/10/16 06:37:53;;;;;;;8.90;2.50;;;12.30;99.90;;;;;;5161358;27;20039;-75
2022/10/16 06:40:18;;;;;;;5.07;2.17;;;12.40;99.90;;;;;;5163328;27;20045;-78
2022/10/16 06:42:44;;;;;;;11.18;2.42;;;12.40;99.90;;;;;;5143319;27;20047;-77
2022/10/16 06:45:10;;;;;;;7.53;2.35;;;12.40;99.90;;;;;;5161045;27;20043;-77
2022/10/16 06:47:36;;;;;;;6.45;2.30;;;12.40;99.90;;;;;;5139720;27;20092;-77
2022/10/16 06:50:03;;;;;;;6.78;2.35;;;12.50;99.90;;;;;;5157219;27;20050;-78
2022/10/16 06:52:29;;;;;;;4.75;2.22;;;12.50;99.90;;;;;;5156899;27;20481;-76
2022/10/16 06:54:55;;;;;;;6.80;2.00;;;12.50;99.90;;;;;;5138304;27;20039;-75
2022/10/16 06:57:21;;;;;;;5.60;2.10;;;12.60;99.90;;;;;;5156738;27;20043;-76
2022/10/16 06:59:47;;;;;;;5.03;1.95;;;12.70;99.90;;;;;;5121166;27;20047;-79
2022/10/16 07:02:12;;;;;;;7.93;1.73;;;12.80;99.90;;;;;;5138150;27;20057;-77
2022/10/16 07:04:38;;;;;;;7.95;1.60;;;12.80;99.90;;;;;;5137837;27;20042;-78
2022/10/16 07:07:04;;;;;;;6.75;1.90;;;12.90;99.90;;;;;;5138311;27;20074;-77
2022/10/16 07:09:30;;;;;;;5.00;2.00;;;12.90;99.90;;;;;;5122308;27;20410;-76
2022/10/16 07:11:55;;;;;;;6.32;2.05;;;13.00;99.90;;;;;;5144414;27;20050;-76
2022/10/16 07:14:21;;;;;;;7.57;2.03;;;13.00;99.90;;;;;;5149539;27;20046;-78
2022/10/16 07:16:48;;;;;;;6.43;1.80;;;13.10;99.90;;;;;;5153736;27;20043;-78
2022/10/16 07:19:17;;;;;;;7.35;1.70;;;13.10;99.90;;;;;;5170120;27;20059;-72
2022/10/16 07:21:43;;;;;;;7.57;1.80;;;13.10;99.90;;;;;;5159167;27;20086;-76
2022/10/16 07:24:15;;;;;;;7.20;1.60;;;13.20;99.90;;;;;;5138667;27;20039;-77
2022/10/16 07:26:42;;;;;;;9.13;2.05;;;13.30;99.90;;;;;;5137738;27;20047;-77
2022/10/16 07:29:20;;;;;;;6.63;1.98;;;13.30;99.90;;;;;;5138062;27;20078;-78
2022/10/16 07:31:46;;;;;;;7.43;1.80;;;13.50;99.90;;;;;;5138226;27;20065;-76
2022/10/16 07:34:14;;;;;;;4.53;1.48;;;13.50;99.90;;;;;;5120511;27;20045;-77
2022/10/16 07:36:40;;;;;;;6.40;1.52;;;13.60;99.90;;;;;;5137147;27;20039;-77
2022/10/16 07:39:06;;;;;;;8.07;1.60;;;13.70;99.90;;;;;;5137452;27;20043;-73
2022/10/16 07:41:32;;;;;;;8.63;2.10;;;13.60;99.90;;;;;;5137630;27;20045;-81
2022/10/16 07:44:00;;;;;;;4.78;1.40;;;13.70;99.90;;;;;;5138467;27;20038;-75
2022/10/16 07:46:26;;;;;;;10.27;1.90;;;13.70;99.90;;;;;;5120947;27;20155;-75
2022/10/16 07:48:53;;;;;;;7.35;1.38;;;13.70;99.90;;;;;;5156147;27;20125;-77
2022/10/16 07:51:21;;;;;;;7.38;1.10;;;13.80;99.90;;;;;;5137548;27;20313;-74
2022/10/16 07:53:47;;;;;;;6.10;1.50;;;13.80;99.90;;;;;;5155424;27;20051;-79
2022/10/16 07:56:14;;;;;;;4.50;1.00;;;13.80;99.90;;;;;;5156250;27;20412;-77
2022/10/16 07:58:39;;;;;;;6.18;0.90;;;13.90;99.90;;;;;;5155131;27;20087;-78
2022/10/16 08:01:15;;;;;;;3.40;1.00;;;13.90;99.90;;;;;;5156002;27;20042;-74
2022/10/16 08:03:43;;;;;;;6.03;1.53;;;13.90;99.90;;;;;;5137196;27;20066;-77
2022/10/16 08:06:08;;;;;;;;;;;14.00;99.90;;;;;;5137695;27;20787;-77
2022/10/16 08:08:35;;;;;;;2.77;0.73;;;14.00;99.90;;;;;;5155474;27;19984;-81
2022/10/16 08:11:03;;;;;;;4.47;0.90;;;14.00;99.90;;;;;;5155423;27;20050;-81
2022/10/16 08:13:29;;;;;;;5.75;1.25;;;14.10;99.90;;;;;;5155793;27;20363;-77
2022/10/16 08:15:55;;;;;;;5.30;1.05;;;14.20;99.90;;;;;;5155933;27;20497;-76
2022/10/16 08:18:22;;;;;;;3.40;1.10;;;14.20;99.90;;;;;;5137420;27;20054;-77
2022/10/16 08:20:47;;;;;;;5.07;1.20;;;14.30;99.90;;;;;;5156838;27;20343;-77
2022/10/16 08:23:16;;;;;;;5.47;1.55;;;14.30;99.90;;;;;;5155795;27;20280;-79
2022/10/16 08:25:42;;;;;;;7.03;1.55;;;14.30;99.90;;;;;;5137701;27;20493;-79
2022/10/16 08:28:10;;;;;;;6.10;1.88;;;14.20;99.90;;;;;;5155349;27;20238;-73
2022/10/16 08:30:37;;;;;;;7.72;2.35;;;14.30;99.90;;;;;;5155698;27;20115;-79
2022/10/16 08:33:03;;;;;;;9.73;2.20;;;14.40;99.90;;;;;;5119796;27;20110;-78
2022/10/16 08:35:29;;;;;;;7.50;1.93;;;14.40;99.90;;;;;;5137815;27;20039;-78
2022/10/16 08:37:55;;;;;;;9.43;1.90;;;14.50;99.90;;;;;;5136801;27;20389;-79
2022/10/16 08:40:39;;;;;;;6.22;1.58;;;14.40;99.90;;;;;;5136845;27;20078;-77
2022/10/16 08:43:52;;;;;;;6.32;1.55;;;14.30;99.90;;;;;;5119733;27;20110;-79
2022/10/16 08:46:27;;;;;;;4.97;1.55;;;14.30;99.90;;;;;;5092127;27;20055;-77
2022/10/16 08:48:56;;;;;;;8.35;1.73;;;14.30;99.90;;;;;;5154743;27;20043;-77
2022/10/16 08:51:26;;;;;;;5.95;1.48;;;14.20;99.90;;;;;;5155430;27;20050;-75
2022/10/16 08:53:56;;;;;;;8.98;1.50;;;14.10;99.90;;;;;;5138359;27;20058;-77
2022/10/16 08:56:23;;;;;;;7.82;1.75;;;14.10;99.90;;;;;;5155679;27;20387;-77
2022/10/16 08:58:50;;;;;;;5.45;1.27;;;14.10;99.90;;;;;;5136319;27;20089;-81
2022/10/16 09:01:18;;;;;;;7.97;1.60;;;14.10;99.90;;;;;;5155209;27;20086;-77
2022/10/16 09:03:53;;;;;;;6.93;1.70;;;14.10;99.90;;;;;;5154723;27;20043;-79
2022/10/16 09:06:50;;;;;;;6.35;1.20;;;14.20;99.90;;;;;;5154936;27;20043;-79
2022/10/16 09:09:53;;;;;;;7.80;1.20;;;14.20;99.90;;;;;;5155410;27;20336;-77
2022/10/16 09:12:36;;;;;;;5.28;0.95;;;14.30;99.90;;;;;;5155806;27;20049;-77
2022/10/16 09:15:11;;;;;;;8.10;0.90;;;14.40;99.90;;;;;;5155761;27;20061;-76
2022/10/16 09:17:54;;;;;;;5.47;0.98;;;14.50;99.90;;;;;;5156636;27;20065;-75
2022/10/16 09:20:34;;;;;;;6.15;0.90;;;14.60;99.90;;;;;;5137440;27;20038;-77
2022/10/16 09:23:27;;;;;;;7.70;1.20;;;14.60;99.90;;;;;;5157568;27;20079;-77
2022/10/16 09:25:55;;;;;;;9.80;1.00;;;14.70;99.90;;;;;;5156845;27;20042;-78
2022/10/16 09:28:21;;;;;;;8.90;0.77;;;14.80;99.90;;;;;;5136948;27;20043;-77
2022/10/16 09:30:49;;;;;;;6.00;0.70;;;14.80;99.90;;;;;;5104660;27;20054;-77
2022/10/16 09:33:17;;;;;;;8.43;0.82;;;14.90;99.90;;;;;;5157010;27;20046;-76
2022/10/16 09:35:44;;;;;;;6.95;1.00;;;15.00;99.90;;;;;;5155876;27;20110;-78
2022/10/16 09:38:25;;;;;;;7.40;0.80;;;15.00;99.90;;;;;;5136519;27;20035;-78
2022/10/16 09:40:51;;;;;;;10.05;1.40;;;15.10;99.90;;;;;;5154593;27;20449;-76
2022/10/16 09:43:50;;;;;;;10.48;0.88;;;15.10;99.90;;;;;;5155308;27;20114;-78
2022/10/16 09:46:32;;;;;;;6.60;1.05;;;15.20;99.90;;;;;;5156301;27;20448;-75
2022/10/16 09:49:02;;;;;;;6.32;0.93;;;15.20;99.90;;;;;;5120141;27;20120;-77
2022/10/16 09:51:35;;;;;;;8.98;0.80;;;15.20;99.90;;;;;;5139414;27;20047;-80
2022/10/16 09:54:10;;;;;;;8.32;0.98;;;15.30;99.90;;;;;;5138367;27;20043;-77
2022/10/16 09:56:38;;;;;;;15.30;1.05;;;15.30;99.90;;;;;;5137734;27;20430;-80
2022/10/16 09:59:17;;;;;;;9.15;1.13;;;15.40;99.90;;;;;;5156590;27;20073;-80
2022/10/16 10:01:53;;;;;;;11.52;1.00;;;15.40;99.90;;;;;;5158524;27;20047;-76
2022/10/16 10:04:20;;;;;;;6.57;0.90;;;15.40;99.90;;;;;;5163566;27;20050;-76
2022/10/16 10:06:57;;;;;;;12.40;0.93;;;15.40;99.90;;;;;;5162654;27;20130;-78
2022/10/16 10:09:39;;;;;;;9.20;0.85;;;15.50;99.90;;;;;;5128807;27;20163;-80
2022/10/16 10:12:20;;;;;;;5.75;0.70;;;15.50;99.90;;;;;;5149807;27;20042;-78
2022/10/16 10:14:52;;;;;;;6.60;0.90;;;15.50;99.90;;;;;;5166518;27;20043;-76
2022/10/16 10:17:27;;;;;;;11.93;0.90;;;15.60;99.90;;;;;;5156556;27;20134;-79
2022/10/16 10:20:25;;;;;;;7.40;0.85;;;15.70;99.90;;;;;;5149947;27;20103;-81
2022/10/16 10:22:51;;;;;;;9.15;0.95;;;15.90;99.90;;;;;;5134625;27;20061;-78
2022/10/16 10:25:39;;;;;;;9.23;0.82;;;16.10;99.90;;;;;;5144931;27;20084;-80
2022/10/16 10:28:32;;;;;;;9.13;0.88;;;16.30;99.90;;;;;;5161319;27;20097;-80
2022/10/16 10:31:41;;;;;;;9.07;0.80;;;16.50;99.90;;;;;;5160132;27;20103;-77
2022/10/16 10:34:27;;;;;;;11.63;0.90;;;16.50;99.90;;;;;;5111280;27;20058;-78
2022/10/16 10:37:16;;;;;;;11.02;0.80;;;16.50;99.90;;;;;;5124312;27;20061;-79
2022/10/16 10:40:07;;;;;;;9.13;0.90;;;16.50;99.90;;;;;;5160874;27;20047;-77
2022/10/16 10:42:49;;;;;;;7.70;0.80;;;16.50;99.90;;;;;;5151325;27;20061;-76
2022/10/16 10:45:47;;;;;;;7.30;0.98;;;16.60;99.90;;;;;;5149046;27;20065;-78
2022/10/16 10:48:13;;;;;;;15.00;1.17;;;16.60;99.90;;;;;;5145905;27;20050;-76
2022/10/16 10:50:57;;;;;;;10.02;1.00;;;16.60;99.90;;;;;;5163912;27;20474;-79
2022/10/16 10:53:36;;;;;;;8.88;0.80;;;16.50;99.90;;;;;;5143825;27;20090;-78
2022/10/16 10:56:05;;;;;;;7.63;0.93;;;16.60;99.90;;;;;;5140962;27;20047;-80
2022/10/16 10:58:52;;;;;;;12.38;1.35;;;16.60;99.90;;;;;;5141666;27;20102;-75
2022/10/16 11:01:41;;;;;;;10.07;0.82;;;16.70;99.90;;;;;;5159310;27;20051;-78
2022/10/16 11:04:34;;;;;;;8.18;1.08;;;16.90;99.90;;;;;;5140178;27;20042;-79
2022/10/16 11:07:09;;;;;;;8.43;1.00;;;17.00;99.90;;;;;;5160253;27;20050;-77
2022/10/16 11:09:41;;;;;;;11.77;1.15;;;17.20;99.90;;;;;;5141464;27;20363;-76
2022/10/16 11:12:34;;;;;;;15.10;1.00;;;17.20;99.90;;;;;;5160181;27;20043;-77
2022/10/16 11:15:12;;;;;;;11.63;1.00;;;17.20;99.90;;;;;;5125193;27;20075;-79
2022/10/16 11:17:45;;;;;;;12.18;1.30;;;17.10;99.90;;;;;;5159302;27;20058;-77
2022/10/16 11:20:22;;;;;;;7.90;0.95;;;16.90;99.90;;;;;;5143310;27;20125;-80
2022/10/16 11:23:01;;;;;;;10.05;1.00;;;16.80;99.90;;;;;;5141145;27;20095;-79
2022/10/16 11:25:31;;;;;;;11.23;1.00;;;16.70;99.90;;;;;;5159908;27;20327;-79
2022/10/16 11:28:07;;;;;;;9.85;1.00;;;16.70;99.90;;;;;;5159560;27;20078;-78
2022/10/16 11:30:53;;;;;;;7.80;1.07;;;16.90;99.90;;;;;;5159206;27;20045;-79
2022/10/16 11:33:24;;;;;;;10.55;1.00;;;16.90;99.90;;;;;;5158469;27;20046;-80
2022/10/16 11:35:53;;;;;;;11.57;0.82;;;17.00;99.90;;;;;;5140966;27;20086;-81
2022/10/16 11:38:55;;;;;;;11.40;1.20;;;17.10;99.90;;;;;;5144695;27;20356;-79
2022/10/16 11:41:29;;;;;;;12.35;1.00;;;17.30;99.90;;;;;;5151401;27;20053;-80
2022/10/16 11:44:18;;;;;;;12.73;0.90;;;17.40;99.90;;;;;;5170795;27;20050;-79
2022/10/16 11:46:57;;;;;;;11.20;1.40;;;17.40;99.90;;;;;;5172762;27;20462;-76
2022/10/16 11:49:26;;;;;;;10.40;1.05;;;17.50;99.90;;;;;;5171609;27;20051;-78
2022/10/16 11:52:07;;;;;;;8.77;0.73;;;17.50;99.90;;;;;;5152089;27;20095;-79
2022/10/16 11:54:49;;;;;;;10.82;0.93;;;17.60;99.90;;;;;;5153468;27;20058;-77
2022/10/16 11:57:23;;;;;;;8.00;0.85;;;17.60;99.90;;;;;;5153140;27;20399;-77
2022/10/16 11:59:53;;;;;;;8.57;0.80;;;;;;;;;;5162784;27;20147;-82
2022/10/16 12:02:44;;;;;;;7.93;0.93;;;17.50;99.90;;;;;;5163810;27;20054;-83
2022/10/16 12:05:22;;;;;;;11.02;0.80;;;17.50;99.90;;;;;;5145933;27;20106;-81
2022/10/16 12:08:01;;;;;;;7.20;0.68;;;17.50;99.90;;;;;;5142776;27;20047;-79
2022/10/16 12:10:31;;;;;;;7.65;0.80;;;17.50;99.90;;;;;;5140415;27;20043;-81
2022/10/16 12:12:57;;;;;;;11.38;0.70;;;17.60;99.90;;;;;;5139900;27;20129;-80
2022/10/16 12:15:32;;;;;;;6.85;0.90;;;17.60;99.90;;;;;;5125582;27;20100;-81
2022/10/16 12:17:58;;;;;;;11.20;1.10;;;17.70;99.90;;;;;;5141187;27;20055;-80
2022/10/16 12:20:30;;;;;;;9.02;0.73;;;17.80;99.90;;;;;;5141720;27;20050;-80
2022/10/16 12:23:02;;;;;;;11.52;0.90;;;17.90;99.90;;;;;;5137252;27;20107;-75
2022/10/16 12:25:28;;;;;;;7.50;0.88;;;17.80;99.90;;;;;;5120694;27;20130;-76
2022/10/16 12:28:03;;;;;;;13.75;1.13;;;17.90;99.90;;;;;;5138431;27;20075;-81
2022/10/16 12:30:36;;;;;;;7.25;0.57;;;17.80;99.90;;;;;;5126175;27;20038;-80
2022/10/16 12:33:06;;;;;;;9.13;0.70;;;17.90;99.90;;;;;;5141581;27;20109;-76
2022/10/16 12:35:44;;;;;;;12.63;1.00;;;18.00;99.90;;;;;;5121852;27;20049;-77
2022/10/16 12:38:51;;;;;;;9.20;0.90;;;18.00;99.90;;;;;;5143462;27;20066;-79
2022/10/16 12:41:34;;;;;;;7.55;0.60;;;18.00;99.90;;;;;;5143475;27;20051;-79
2022/10/16 12:44:01;;;;;;;6.15;0.70;;;18.20;99.90;;;;;;5141248;27;20138;-77
2022/10/16 12:46:29;;;;;;;10.63;0.80;;;18.20;99.90;;;;;;5106353;27;20051;-81
2022/10/16 12:49:33;;;;;;;5.22;0.50;;;18.40;99.90;;;;;;5140138;27;20046;-80
2022/10/16 12:51:58;;;;;;;7.65;0.60;;;18.40;99.90;;;;;;5159313;27;20043;-77
2022/10/16 12:54:30;;;;;;;9.07;0.70;;;18.30;99.90;;;;;;5158528;27;20057;-80
2022/10/16 12:57:04;;;;;;;8.13;0.70;;;18.30;99.90;;;;;;5159401;27;20031;-78
2022/10/16 12:59:35;;;;;;;7.07;1.05;;;18.10;99.90;;;;;;5139975;27;20390;-79
2022/10/16 13:02:07;;;;;;;6.97;0.82;;;17.80;99.90;;;;;;5158009;27;20039;-79
2022/10/16 13:05:09;;;;;;;9.38;0.77;;;17.70;99.90;;;;;;5157251;27;20085;-76
2022/10/16 13:07:50;;;;;;;9.68;0.93;;;17.70;99.90;;;;;;5158066;27;20082;-78